Buena Vista, Colorado
Current Conditions -  °F | °C
As of 3:35 PM on Monday 20 Oct 2014 (Local Time) from KAEJ Reporting Station
Scattered Clouds Scattered Clouds  
Wind Chill: 64°   Ceiling: Unl
Heat Index: 64°   Visibility: 10mi
Dew Point: 31°   Wind: 10mph
Humidity: 29%   Direction: 180°S
Pressure: 30.23"   Gusts: NA
Location:  38.84°N, 106.13°W
Report Text: KAEJ 202135Z AUTO 18009KT 10SM SCT075 SCT100 18/M01 A3023 RMK AO2 LTG DSNT N T01761008
Loading
Personal Weather Stations






























Interactive Weather Map
Tropical Storm Tracking
New forecast layout! Learn more

10-Day Weather Forecast

Advertisements
Track Severe Weather on mobile